sensor_id;sensor_type;location;lat;lon;timestamp;temperature;humidity
38237;DHT22;50101;49.438;11.098;2023-03-01T00:00:08;19.00;47.60
38237;DHT22;50101;49.438;11.098;2023-03-01T00:02:35;19.00;47.30
38237;DHT22;50101;49.438;11.098;2023-03-01T00:05:02;19.00;47.80
38237;DHT22;50101;49.438;11.098;2023-03-01T00:07:29;19.00;47.70
38237;DHT22;50101;49.438;11.098;2023-03-01T00:09:56;19.00;47.70
38237;DHT22;50101;49.438;11.098;2023-03-01T00:12:22;18.90;47.60
38237;DHT22;50101;49.438;11.098;2023-03-01T00:14:49;18.90;47.60
38237;DHT22;50101;49.438;11.098;2023-03-01T00:17:16;18.90;47.50
38237;DHT22;50101;49.438;11.098;2023-03-01T00:19:43;18.90;47.40
38237;DHT22;50101;49.438;11.098;2023-03-01T00:22:10;18.90;47.60
38237;DHT22;50101;49.438;11.098;2023-03-01T00:24:36;18.90;47.40
38237;DHT22;50101;49.438;11.098;2023-03-01T00:27:03;18.90;47.50
38237;DHT22;50101;49.438;11.098;2023-03-01T00:29:29;18.90;47.50
38237;DHT22;50101;49.438;11.098;2023-03-01T00:31:56;18.90;47.50
38237;DHT22;50101;49.438;11.098;2023-03-01T00:34:23;18.90;46.80
38237;DHT22;50101;49.438;11.098;2023-03-01T00:36:49;18.90;47.50
38237;DHT22;50101;49.438;11.098;2023-03-01T00:39:16;18.90;47.40
38237;DHT22;50101;49.438;11.098;2023-03-01T00:41:43;18.90;47.60
38237;DHT22;50101;49.438;11.098;2023-03-01T00:44:11;18.80;47.40
38237;DHT22;50101;49.438;11.098;2023-03-01T00:46:38;18.80;47.50
38237;DHT22;50101;49.438;11.098;2023-03-01T00:49:05;18.80;47.50
38237;DHT22;50101;49.438;11.098;2023-03-01T00:51:32;18.80;47.50
38237;DHT22;50101;49.438;11.098;2023-03-01T00:54:00;18.80;47.40
38237;DHT22;50101;49.438;11.098;2023-03-01T00:56:27;18.80;47.40
38237;DHT22;50101;49.438;11.098;2023-03-01T00:58:55;18.80;47.40
38237;DHT22;50101;49.438;11.098;2023-03-01T01:01:25;18.80;47.30
38237;DHT22;50101;49.438;11.098;2023-03-01T01:03:59;18.80;47.50
38237;DHT22;50101;49.438;11.098;2023-03-01T01:06:28;18.80;47.50
38237;DHT22;50101;49.438;11.098;2023-03-01T01:08:56;18.80;47.60
38237;DHT22;50101;49.438;11.098;2023-03-01T01:11:25;18.80;47.50
38237;DHT22;50101;49.438;11.098;2023-03-01T01:13:53;18.80;47.50
38237;DHT22;50101;49.438;11.098;2023-03-01T01:16:21;18.80;47.50
38237;DHT22;50101;49.438;11.098;2023-03-01T01:18:48;18.80;47.30
38237;DHT22;50101;49.438;11.098;2023-03-01T01:21:16;18.80;47.30
38237;DHT22;50101;49.438;11.098;2023-03-01T01:23:45;18.80;47.50
38237;DHT22;50101;49.438;11.098;2023-03-01T01:26:15;18.70;47.40
38237;DHT22;50101;49.438;11.098;2023-03-01T01:28:42;18.80;47.50
38237;DHT22;50101;49.438;11.098;2023-03-01T01:31:09;18.80;47.60
38237;DHT22;50101;49.438;11.098;2023-03-01T01:33:36;18.80;47.70
38237;DHT22;50101;49.438;11.098;2023-03-01T01:36:07;18.70;47.60
38237;DHT22;50101;49.438;11.098;2023-03-01T01:38:35;18.70;47.60
38237;DHT22;50101;49.438;11.098;2023-03-01T01:41:02;18.70;47.60
38237;DHT22;50101;49.438;11.098;2023-03-01T01:43:42;18.70;47.00
38237;DHT22;50101;49.438;11.098;2023-03-01T01:46:28;18.70;47.50
38237;DHT22;50101;49.438;11.098;2023-03-01T01:49:03;18.70;47.50
38237;DHT22;50101;49.438;11.098;2023-03-01T01:51:37;18.70;47.50
38237;DHT22;50101;49.438;11.098;2023-03-01T01:54:46;18.70;47.40
38237;DHT22;50101;49.438;11.098;2023-03-01T01:57:07;18.70;47.40
38237;DHT22;50101;49.438;11.098;2023-03-01T01:59:35;18.70;47.50
38237;DHT22;50101;49.438;11.098;2023-03-01T02:02:04;18.70;47.50
38237;DHT22;50101;49.438;11.098;2023-03-01T02:04:32;18.70;47.50
38237;DHT22;50101;49.438;11.098;2023-03-01T02:07:14;18.70;47.40
38237;DHT22;50101;49.438;11.098;2023-03-01T02:09:49;18.70;47.40
38237;DHT22;50101;49.438;11.098;2023-03-01T02:12:19;18.70;47.50
38237;DHT22;50101;49.438;11.098;2023-03-01T02:14:46;18.70;47.50
38237;DHT22;50101;49.438;11.098;2023-03-01T02:17:15;18.60;47.50
38237;DHT22;50101;49.438;11.098;2023-03-01T02:19:57;18.60;47.50
38237;DHT22;50101;49.438;11.098;2023-03-01T02:22:30;18.60;47.50
38237;DHT22;50101;49.438;11.098;2023-03-01T02:25:26;18.60;47.40
38237;DHT22;50101;49.438;11.098;2023-03-01T02:30:36;18.60;47.50
38237;DHT22;50101;49.438;11.098;2023-03-01T02:33:04;18.60;47.50
38237;DHT22;50101;49.438;11.098;2023-03-01T02:35:37;18.60;47.50
38237;DHT22;50101;49.438;11.098;2023-03-01T02:38:07;18.60;47.50
38237;DHT22;50101;49.438;11.098;2023-03-01T02:40:36;18.60;47.40
38237;DHT22;50101;49.438;11.098;2023-03-01T02:43:08;18.60;47.60
38237;DHT22;50101;49.438;11.098;2023-03-01T02:45:35;18.60;47.60
38237;DHT22;50101;49.438;11.098;2023-03-01T02:48:01;18.60;47.60
38237;DHT22;50101;49.438;11.098;2023-03-01T02:53:04;18.60;47.60
38237;DHT22;50101;49.438;11.098;2023-03-01T02:55:34;18.50;47.50
38237;DHT22;50101;49.438;11.098;2023-03-01T02:58:02;18.50;47.40
38237;DHT22;50101;49.438;11.098;2023-03-01T03:00:41;18.50;47.50
38237;DHT22;50101;49.438;11.098;2023-03-01T03:03:16;18.50;47.50
38237;DHT22;50101;49.438;11.098;2023-03-01T03:05:43;18.50;47.40
38237;DHT22;50101;49.438;11.098;2023-03-01T03:08:09;18.50;47.40
38237;DHT22;50101;49.438;11.098;2023-03-01T03:10:40;18.50;47.30
38237;DHT22;50101;49.438;11.098;2023-03-01T03:13:11;18.50;47.50
38237;DHT22;50101;49.438;11.098;2023-03-01T03:15:39;18.50;47.50
38237;DHT22;50101;49.438;11.098;2023-03-01T03:18:08;18.50;47.40
38237;DHT22;50101;49.438;11.098;2023-03-01T03:20:36;18.50;47.40
38237;DHT22;50101;49.438;11.098;2023-03-01T03:23:04;18.50;47.50
38237;DHT22;50101;49.438;11.098;2023-03-01T03:25:31;18.50;47.50
38237;DHT22;50101;49.438;11.098;2023-03-01T03:27:58;18.40;47.40
38237;DHT22;50101;49.438;11.098;2023-03-01T03:30:27;18.50;47.40
38237;DHT22;50101;49.438;11.098;2023-03-01T03:32:55;18.50;47.50
38237;DHT22;50101;49.438;11.098;2023-03-01T03:37:49;18.50;47.40
38237;DHT22;50101;49.438;11.098;2023-03-01T03:40:31;20.20;48.90
38237;DHT22;50101;49.438;11.098;2023-03-01T03:42:58;18.40;47.30
38237;DHT22;50101;49.438;11.098;2023-03-01T03:45:24;18.40;47.40
38237;DHT22;50101;49.438;11.098;2023-03-01T03:47:51;18.40;47.50
38237;DHT22;50101;49.438;11.098;2023-03-01T03:50:18;18.40;47.50
38237;DHT22;50101;49.438;11.098;2023-03-01T03:52:45;18.40;47.40
38237;DHT22;50101;49.438;11.098;2023-03-01T03:55:12;18.40;47.50
38237;DHT22;50101;49.438;11.098;2023-03-01T03:57:42;18.40;47.50
38237;DHT22;50101;49.438;11.098;2023-03-01T04:00:11;18.40;47.50
38237;DHT22;50101;49.438;11.098;2023-03-01T04:02:44;18.40;47.60
38237;DHT22;50101;49.438;11.098;2023-03-01T04:05:13;18.40;47.60
38237;DHT22;50101;49.438;11.098;2023-03-01T04:07:41;18.40;47.70
38237;DHT22;50101;49.438;11.098;2023-03-01T04:10:11;18.40;47.70
38237;DHT22;50101;49.438;11.098;2023-03-01T04:12:38;18.40;47.60
38237;DHT22;50101;49.438;11.098;2023-03-01T04:15:06;18.40;47.70
38237;DHT22;50101;49.438;11.098;2023-03-01T04:17:44;18.40;47.70
38237;DHT22;50101;49.438;11.098;2023-03-01T04:20:13;18.40;47.70
38237;DHT22;50101;49.438;11.098;2023-03-01T04:22:40;18.40;47.80
38237;DHT22;50101;49.438;11.098;2023-03-01T04:25:07;18.40;47.80
38237;DHT22;50101;49.438;11.098;2023-03-01T04:27:35;18.40;47.70
38237;DHT22;50101;49.438;11.098;2023-03-01T04:30:03;18.40;47.70
38237;DHT22;50101;49.438;11.098;2023-03-01T04:32:30;18.40;47.80
38237;DHT22;50101;49.438;11.098;2023-03-01T04:34:57;18.40;47.70
38237;DHT22;50101;49.438;11.098;2023-03-01T04:37:23;18.30;47.60
38237;DHT22;50101;49.438;11.098;2023-03-01T04:39:50;18.40;47.70
38237;DHT22;50101;49.438;11.098;2023-03-01T04:42:18;18.30;47.70
38237;DHT22;50101;49.438;11.098;2023-03-01T04:44:45;18.30;47.60
38237;DHT22;50101;49.438;11.098;2023-03-01T04:47:12;18.30;47.60
38237;DHT22;50101;49.438;11.098;2023-03-01T04:49:39;18.30;47.70
38237;DHT22;50101;49.438;11.098;2023-03-01T04:52:05;18.40;47.80
38237;DHT22;50101;49.438;11.098;2023-03-01T04:54:33;18.40;47.70
38237;DHT22;50101;49.438;11.098;2023-03-01T04:57:01;18.40;47.70
38237;DHT22;50101;49.438;11.098;2023-03-01T04:59:28;18.40;47.70
38237;DHT22;50101;49.438;11.098;2023-03-01T05:01:56;17.90;47.20
38237;DHT22;50101;49.438;11.098;2023-03-01T05:04:23;18.40;47.70
38237;DHT22;50101;49.438;11.098;2023-03-01T05:06:50;18.40;47.60
38237;DHT22;50101;49.438;11.098;2023-03-01T05:09:17;18.40;47.60
38237;DHT22;50101;49.438;11.098;2023-03-01T05:11:44;18.40;47.60
38237;DHT22;50101;49.438;11.098;2023-03-01T05:14:11;18.40;47.60
38237;DHT22;50101;49.438;11.098;2023-03-01T05:16:38;18.40;47.50
38237;DHT22;50101;49.438;11.098;2023-03-01T05:19:05;18.40;47.60
38237;DHT22;50101;49.438;11.098;2023-03-01T05:21:38;18.40;47.60
38237;DHT22;50101;49.438;11.098;2023-03-01T05:24:25;18.50;47.70
38237;DHT22;50101;49.438;11.098;2023-03-01T05:26:53;18.50;47.50
38237;DHT22;50101;49.438;11.098;2023-03-01T05:29:24;18.50;47.00
38237;DHT22;50101;49.438;11.098;2023-03-01T05:31:55;18.50;47.50
38237;DHT22;50101;49.438;11.098;2023-03-01T05:34:26;18.50;47.30
38237;DHT22;50101;49.438;11.098;2023-03-01T05:36:53;18.50;46.90
38237;DHT22;50101;49.438;11.098;2023-03-01T05:39:21;18.50;46.80
38237;DHT22;50101;49.438;11.098;2023-03-01T05:41:55;18.50;47.20
38237;DHT22;50101;49.438;11.098;2023-03-01T05:44:23;18.50;47.30
38237;DHT22;50101;49.438;11.098;2023-03-01T05:46:50;18.50;47.30
38237;DHT22;50101;49.438;11.098;2023-03-01T05:49:18;18.60;47.40
38237;DHT22;50101;49.438;11.098;2023-03-01T05:51:48;18.60;47.70
38237;DHT22;50101;49.438;11.098;2023-03-01T05:54:15;18.50;47.80
38237;DHT22;50101;49.438;11.098;2023-03-01T05:56:43;18.70;48.20
38237;DHT22;50101;49.438;11.098;2023-03-01T05:59:10;18.70;48.10
38237;DHT22;50101;49.438;11.098;2023-03-01T06:01:37;18.70;48.10
38237;DHT22;50101;49.438;11.098;2023-03-01T06:04:04;18.60;48.00
38237;DHT22;50101;49.438;11.098;2023-03-01T06:06:35;18.60;48.00
38237;DHT22;50101;49.438;11.098;2023-03-01T06:09:06;18.60;47.90
38237;DHT22;50101;49.438;11.098;2023-03-01T06:11:36;18.70;48.00
38237;DHT22;50101;49.438;11.098;2023-03-01T06:14:03;18.70;47.90
38237;DHT22;50101;49.438;11.098;2023-03-01T06:16:30;18.70;47.90
38237;DHT22;50101;49.438;11.098;2023-03-01T06:18:57;18.70;47.80
38237;DHT22;50101;49.438;11.098;2023-03-01T06:21:24;18.70;47.70
38237;DHT22;50101;49.438;11.098;2023-03-01T06:23:51;18.70;47.70
38237;DHT22;50101;49.438;11.098;2023-03-01T06:26:18;18.80;47.70
38237;DHT22;50101;49.438;11.098;2023-03-01T06:28:45;18.80;47.70
38237;DHT22;50101;49.438;11.098;2023-03-01T06:31:12;18.80;47.60
38237;DHT22;50101;49.438;11.098;2023-03-01T06:33:39;18.80;47.60
38237;DHT22;50101;49.438;11.098;2023-03-01T06:36:07;18.80;47.60
38237;DHT22;50101;49.438;11.098;2023-03-01T06:38:34;18.90;47.60
38237;DHT22;50101;49.438;11.098;2023-03-01T06:41:01;18.90;47.60
38237;DHT22;50101;49.438;11.098;2023-03-01T06:43:28;18.90;47.00
38237;DHT22;50101;49.438;11.098;2023-03-01T06:45:55;18.90;47.50
38237;DHT22;50101;49.438;11.098;2023-03-01T06:48:21;18.90;47.50
38237;DHT22;50101;49.438;11.098;2023-03-01T06:50:49;19.00;47.70
38237;DHT22;50101;49.438;11.098;2023-03-01T06:53:16;19.00;47.60
38237;DHT22;50101;49.438;11.098;2023-03-01T06:55:42;19.00;46.90
38237;DHT22;50101;49.438;11.098;2023-03-01T06:58:09;19.00;47.50
38237;DHT22;50101;49.438;11.098;2023-03-01T07:00:36;19.00;47.50
38237;DHT22;50101;49.438;11.098;2023-03-01T07:03:03;19.00;47.60
38237;DHT22;50101;49.438;11.098;2023-03-01T07:05:30;19.00;47.50
38237;DHT22;50101;49.438;11.098;2023-03-01T07:07:57;19.10;47.50
38237;DHT22;50101;49.438;11.098;2023-03-01T07:10:24;19.10;47.30
38237;DHT22;50101;49.438;11.098;2023-03-01T07:12:53;19.10;47.30
38237;DHT22;50101;49.438;11.098;2023-03-01T07:15:20;19.10;47.30
38237;DHT22;50101;49.438;11.098;2023-03-01T07:17:47;19.10;47.30
38237;DHT22;50101;49.438;11.098;2023-03-01T07:20:17;19.10;47.30
38237;DHT22;50101;49.438;11.098;2023-03-01T07:22:44;19.20;47.40
38237;DHT22;50101;49.438;11.098;2023-03-01T07:25:11;19.20;47.40
38237;DHT22;50101;49.438;11.098;2023-03-01T07:27:38;19.20;47.40
38237;DHT22;50101;49.438;11.098;2023-03-01T07:30:05;19.20;47.30
38237;DHT22;50101;49.438;11.098;2023-03-01T07:32:32;19.20;47.30
38237;DHT22;50101;49.438;11.098;2023-03-01T07:34:58;19.20;46.70
38237;DHT22;50101;49.438;11.098;2023-03-01T07:37:25;19.30;47.30
38237;DHT22;50101;49.438;11.098;2023-03-01T07:39:52;19.30;47.20
38237;DHT22;50101;49.438;11.098;2023-03-01T07:42:18;19.30;47.10
38237;DHT22;50101;49.438;11.098;2023-03-01T07:44:45;19.30;47.10
38237;DHT22;50101;49.438;11.098;2023-03-01T07:47:12;19.30;47.10
38237;DHT22;50101;49.438;11.098;2023-03-01T07:49:38;19.30;47.00
38237;DHT22;50101;49.438;11.098;2023-03-01T07:52:05;19.30;47.10
38237;DHT22;50101;49.438;11.098;2023-03-01T07:54:31;19.30;46.90
38237;DHT22;50101;49.438;11.098;2023-03-01T07:56:58;19.30;46.90
38237;DHT22;50101;49.438;11.098;2023-03-01T07:59:25;19.30;46.90
38237;DHT22;50101;49.438;11.098;2023-03-01T08:01:58;19.40;46.90
38237;DHT22;50101;49.438;11.098;2023-03-01T08:04:25;19.40;46.40
38237;DHT22;50101;49.438;11.098;2023-03-01T08:06:56;19.40;46.90
38237;DHT22;50101;49.438;11.098;2023-03-01T08:09:23;19.40;46.90
38237;DHT22;50101;49.438;11.098;2023-03-01T08:11:50;19.40;46.90
38237;DHT22;50101;49.438;11.098;2023-03-01T08:14:17;19.50;46.90
38237;DHT22;50101;49.438;11.098;2023-03-01T08:16:43;19.50;46.90
38237;DHT22;50101;49.438;11.098;2023-03-01T08:19:11;19.50;46.90
38237;DHT22;50101;49.438;11.098;2023-03-01T08:21:38;19.50;46.90
38237;DHT22;50101;49.438;11.098;2023-03-01T08:24:06;19.50;46.90
38237;DHT22;50101;49.438;11.098;2023-03-01T08:26:33;19.50;46.90
38237;DHT22;50101;49.438;11.098;2023-03-01T08:29:00;19.50;47.00
38237;DHT22;50101;49.438;11.098;2023-03-01T08:31:33;19.50;47.00
38237;DHT22;50101;49.438;11.098;2023-03-01T08:34:10;19.50;47.10
38237;DHT22;50101;49.438;11.098;2023-03-01T08:36:39;19.50;47.10
38237;DHT22;50101;49.438;11.098;2023-03-01T08:39:08;19.50;47.20
38237;DHT22;50101;49.438;11.098;2023-03-01T08:41:35;19.50;47.20
38237;DHT22;50101;49.438;11.098;2023-03-01T08:44:02;19.50;47.30
38237;DHT22;50101;49.438;11.098;2023-03-01T08:46:35;19.60;47.40
38237;DHT22;50101;49.438;11.098;2023-03-01T08:49:10;19.60;47.50
38237;DHT22;50101;49.438;11.098;2023-03-01T08:51:37;19.50;47.50
38237;DHT22;50101;49.438;11.098;2023-03-01T08:54:06;19.60;47.50
38237;DHT22;50101;49.438;11.098;2023-03-01T08:56:33;19.60;47.60
38237;DHT22;50101;49.438;11.098;2023-03-01T08:59:00;19.60;47.70
38237;DHT22;50101;49.438;11.098;2023-03-01T09:01:26;19.50;47.60
38237;DHT22;50101;49.438;11.098;2023-03-01T09:03:53;19.60;47.80
38237;DHT22;50101;49.438;11.098;2023-03-01T09:06:20;19.50;47.60
38237;DHT22;50101;49.438;11.098;2023-03-01T09:08:48;19.60;47.70
38237;DHT22;50101;49.438;11.098;2023-03-01T09:11:20;19.60;47.70
38237;DHT22;50101;49.438;11.098;2023-03-01T09:13:48;19.60;47.70
38237;DHT22;50101;49.438;11.098;2023-03-01T09:16:17;19.60;47.70
38237;DHT22;50101;49.438;11.098;2023-03-01T09:18:44;19.60;47.70
38237;DHT22;50101;49.438;11.098;2023-03-01T09:21:14;19.60;47.70
38237;DHT22;50101;49.438;11.098;2023-03-01T09:23:43;19.70;47.80
38237;DHT22;50101;49.438;11.098;2023-03-01T09:26:12;19.70;47.80
38237;DHT22;50101;49.438;11.098;2023-03-01T09:28:40;19.60;47.70
38237;DHT22;50101;49.438;11.098;2023-03-01T09:31:11;19.70;47.80
38237;DHT22;50101;49.438;11.098;2023-03-01T09:33:42;19.70;47.80
38237;DHT22;50101;49.438;11.098;2023-03-01T09:36:13;19.70;47.80
38237;DHT22;50101;49.438;11.098;2023-03-01T09:38:40;19.60;47.80
38237;DHT22;50101;49.438;11.098;2023-03-01T09:43:44;19.70;47.80
38237;DHT22;50101;49.438;11.098;2023-03-01T09:46:14;19.60;47.80
38237;DHT22;50101;49.438;11.098;2023-03-01T09:48:52;19.70;47.80
38237;DHT22;50101;49.438;11.098;2023-03-01T09:51:35;19.60;47.70
38237;DHT22;50101;49.438;11.098;2023-03-01T09:54:04;19.70;47.80
38237;DHT22;50101;49.438;11.098;2023-03-01T09:56:46;19.70;47.80
38237;DHT22;50101;49.438;11.098;2023-03-01T10:01:59;19.60;47.80
38237;DHT22;50101;49.438;11.098;2023-03-01T10:04:46;19.70;47.30
38237;DHT22;50101;49.438;11.098;2023-03-01T10:09:51;19.70;47.80
38237;DHT22;50101;49.438;11.098;2023-03-01T10:12:23;19.70;47.80
38237;DHT22;50101;49.438;11.098;2023-03-01T10:15:18;19.70;47.30
38237;DHT22;50101;49.438;11.098;2023-03-01T10:17:56;19.70;47.80
38237;DHT22;50101;49.438;11.098;2023-03-01T10:20:41;19.70;47.80
38237;DHT22;50101;49.438;11.098;2023-03-01T10:23:09;19.70;47.80
38237;DHT22;50101;49.438;11.098;2023-03-01T10:25:47;19.70;47.80
38237;DHT22;50101;49.438;11.098;2023-03-01T10:28:25;19.70;47.80
38237;DHT22;50101;49.438;11.098;2023-03-01T10:30:52;19.70;47.80
38237;DHT22;50101;49.438;11.098;2023-03-01T10:33:23;19.70;47.90
38237;DHT22;50101;49.438;11.098;2023-03-01T10:35:51;19.70;47.80
38237;DHT22;50101;49.438;11.098;2023-03-01T10:38:19;19.70;47.90
38237;DHT22;50101;49.438;11.098;2023-03-01T10:41:04;19.70;47.80
38237;DHT22;50101;49.438;11.098;2023-03-01T10:46:32;19.70;47.90
38237;DHT22;50101;49.438;11.098;2023-03-01T10:49:15;19.80;47.90
38237;DHT22;50101;49.438;11.098;2023-03-01T10:51:45;19.80;48.10
38237;DHT22;50101;49.438;11.098;2023-03-01T10:54:27;19.70;47.90
38237;DHT22;50101;49.438;11.098;2023-03-01T10:56:57;19.80;48.00
38237;DHT22;50101;49.438;11.098;2023-03-01T10:59:35;19.70;48.00
38237;DHT22;50101;49.438;11.098;2023-03-01T11:02:23;20.90;49.80
38237;DHT22;50101;49.438;11.098;2023-03-01T11:07:52;19.70;48.00
38237;DHT22;50101;49.438;11.098;2023-03-01T11:10:23;19.70;48.10
38237;DHT22;50101;49.438;11.098;2023-03-01T11:12:56;19.70;48.00
38237;DHT22;50101;49.438;11.098;2023-03-01T11:15:31;19.70;48.00
38237;DHT22;50101;49.438;11.098;2023-03-01T11:17:58;19.70;48.10
38237;DHT22;50101;49.438;11.098;2023-03-01T11:20:40;19.70;48.00
38237;DHT22;50101;49.438;11.098;2023-03-01T11:23:14;19.70;48.10
38237;DHT22;50101;49.438;11.098;2023-03-01T11:25:54;19.70;48.30
38237;DHT22;50101;49.438;11.098;2023-03-01T11:28:22;19.70;48.30
38237;DHT22;50101;49.438;11.098;2023-03-01T11:33:48;19.70;48.20
38237;DHT22;50101;49.438;11.098;2023-03-01T11:36:51;19.70;48.20
38237;DHT22;50101;49.438;11.098;2023-03-01T11:42:21;19.70;48.20
38237;DHT22;50101;49.438;11.098;2023-03-01T11:44:55;19.70;48.20
38237;DHT22;50101;49.438;11.098;2023-03-01T11:58:29;19.70;48.20
38237;DHT22;50101;49.438;11.098;2023-03-01T12:01:27;19.80;48.20
38237;DHT22;50101;49.438;11.098;2023-03-01T12:04:06;19.80;48.10
38237;DHT22;50101;49.438;11.098;2023-03-01T12:09:30;19.80;48.20
38237;DHT22;50101;49.438;11.098;2023-03-01T12:12:27;19.70;48.00
38237;DHT22;50101;49.438;11.098;2023-03-01T12:17:46;19.80;48.10
38237;DHT22;50101;49.438;11.098;2023-03-01T12:25:56;19.80;48.00
38237;DHT22;50101;49.438;11.098;2023-03-01T12:31:37;19.80;48.20
38237;DHT22;50101;49.438;11.098;2023-03-01T12:42:43;19.80;48.00
38237;DHT22;50101;49.438;11.098;2023-03-01T12:50:54;19.80;48.20
38237;DHT22;50101;49.438;11.098;2023-03-01T12:53:24;19.80;48.20
38237;DHT22;50101;49.438;11.098;2023-03-01T12:55:54;19.80;48.20
38237;DHT22;50101;49.438;11.098;2023-03-01T12:58:35;19.80;48.20
38237;DHT22;50101;49.438;11.098;2023-03-01T13:17:51;19.90;48.20
38237;DHT22;50101;49.438;11.098;2023-03-01T13:20:20;19.90;48.20
38237;DHT22;50101;49.438;11.098;2023-03-01T13:22:47;19.80;48.20
38237;DHT22;50101;49.438;11.098;2023-03-01T13:25:25;19.90;48.30
38237;DHT22;50101;49.438;11.098;2023-03-01T13:31:04;19.90;48.40
38237;DHT22;50101;49.438;11.098;2023-03-01T13:36:00;19.90;48.40
38237;DHT22;50101;49.438;11.098;2023-03-01T13:38:48;19.90;48.40
38237;DHT22;50101;49.438;11.098;2023-03-01T13:41:17;19.90;48.50
38237;DHT22;50101;49.438;11.098;2023-03-01T13:43:46;19.90;48.50
38237;DHT22;50101;49.438;11.098;2023-03-01T13:46:23;19.90;48.50
38237;DHT22;50101;49.438;11.098;2023-03-01T13:48:53;19.90;48.50
38237;DHT22;50101;49.438;11.098;2023-03-01T13:51:26;19.90;48.50
38237;DHT22;50101;49.438;11.098;2023-03-01T13:53:55;19.90;48.60
38237;DHT22;50101;49.438;11.098;2023-03-01T13:56:36;19.90;48.60
38237;DHT22;50101;49.438;11.098;2023-03-01T13:59:21;19.90;48.50
38237;DHT22;50101;49.438;11.098;2023-03-01T14:02:00;19.90;48.60
38237;DHT22;50101;49.438;11.098;2023-03-01T14:04:32;19.90;48.60
38237;DHT22;50101;49.438;11.098;2023-03-01T14:07:22;20.00;48.70
38237;DHT22;50101;49.438;11.098;2023-03-01T14:09:59;19.90;48.60
38237;DHT22;50101;49.438;11.098;2023-03-01T14:13:08;19.90;48.60
38237;DHT22;50101;49.438;11.098;2023-03-01T14:15:57;19.90;48.60
38237;DHT22;50101;49.438;11.098;2023-03-01T14:21:31;20.00;48.70
38237;DHT22;50101;49.438;11.098;2023-03-01T14:23:58;20.00;49.00
38237;DHT22;50101;49.438;11.098;2023-03-01T14:26:25;20.00;48.80
38237;DHT22;50101;49.438;11.098;2023-03-01T14:28:52;20.00;48.70
38237;DHT22;50101;49.438;11.098;2023-03-01T14:31:36;20.00;48.80
38237;DHT22;50101;49.438;11.098;2023-03-01T14:34:24;20.00;48.80
38237;DHT22;50101;49.438;11.098;2023-03-01T14:36:51;20.00;48.80
38237;DHT22;50101;49.438;11.098;2023-03-01T14:39:22;20.00;48.80
38237;DHT22;50101;49.438;11.098;2023-03-01T14:41:50;20.00;48.80
38237;DHT22;50101;49.438;11.098;2023-03-01T14:44:23;20.00;48.30
38237;DHT22;50101;49.438;11.098;2023-03-01T14:46:55;20.10;48.90
38237;DHT22;50101;49.438;11.098;2023-03-01T14:49:25;20.00;48.80
38237;DHT22;50101;49.438;11.098;2023-03-01T14:52:04;20.00;48.90
38237;DHT22;50101;49.438;11.098;2023-03-01T14:57:20;20.00;48.90
38237;DHT22;50101;49.438;11.098;2023-03-01T14:59:52;20.00;48.90
38237;DHT22;50101;49.438;11.098;2023-03-01T15:02:23;20.10;49.00
38237;DHT22;50101;49.438;11.098;2023-03-01T15:04:54;20.00;48.90
38237;DHT22;50101;49.438;11.098;2023-03-01T15:07:28;20.00;49.50
38237;DHT22;50101;49.438;11.098;2023-03-01T15:09:55;20.10;49.00
38237;DHT22;50101;49.438;11.098;2023-03-01T15:14:56;20.10;49.00
38237;DHT22;50101;49.438;11.098;2023-03-01T15:17:36;20.10;49.00
38237;DHT22;50101;49.438;11.098;2023-03-01T15:20:06;20.10;49.00
38237;DHT22;50101;49.438;11.098;2023-03-01T15:22:40;20.10;49.00
38237;DHT22;50101;49.438;11.098;2023-03-01T15:25:17;20.00;48.40
38237;DHT22;50101;49.438;11.098;2023-03-01T15:27:48;20.20;49.10
38237;DHT22;50101;49.438;11.098;2023-03-01T15:30:29;20.10;48.90
38237;DHT22;50101;49.438;11.098;2023-03-01T15:33:28;20.10;49.00
38237;DHT22;50101;49.438;11.098;2023-03-01T15:35:57;20.10;49.00
38237;DHT22;50101;49.438;11.098;2023-03-01T15:38:36;20.10;49.00
38237;DHT22;50101;49.438;11.098;2023-03-01T15:41:32;20.10;49.00
38237;DHT22;50101;49.438;11.098;2023-03-01T15:44:13;20.10;48.50
38237;DHT22;50101;49.438;11.098;2023-03-01T15:46:45;20.00;49.00
38237;DHT22;50101;49.438;11.098;2023-03-01T15:49:35;20.10;49.00
38237;DHT22;50101;49.438;11.098;2023-03-01T15:55:01;20.10;48.70
38237;DHT22;50101;49.438;11.098;2023-03-01T15:57:28;20.10;48.70
38237;DHT22;50101;49.438;11.098;2023-03-01T15:59:55;20.00;48.60
38237;DHT22;50101;49.438;11.098;2023-03-01T16:02:23;20.00;48.60
38237;DHT22;50101;49.438;11.098;2023-03-01T16:04:51;20.00;48.00
38237;DHT22;50101;49.438;11.098;2023-03-01T16:07:17;20.00;48.50
38237;DHT22;50101;49.438;11.098;2023-03-01T16:09:44;20.00;48.80
38237;DHT22;50101;49.438;11.098;2023-03-01T16:12:15;20.00;48.70
38237;DHT22;50101;49.438;11.098;2023-03-01T16:14:42;20.00;48.80
38237;DHT22;50101;49.438;11.098;2023-03-01T16:17:09;19.90;48.80
38237;DHT22;50101;49.438;11.098;2023-03-01T16:19:39;19.90;48.90
38237;DHT22;50101;49.438;11.098;2023-03-01T16:22:10;19.90;48.90
38237;DHT22;50101;49.438;11.098;2023-03-01T16:24:37;19.80;48.80
38237;DHT22;50101;49.438;11.098;2023-03-01T16:27:03;19.80;48.80
38237;DHT22;50101;49.438;11.098;2023-03-01T16:29:30;19.80;48.90
38237;DHT22;50101;49.438;11.098;2023-03-01T16:32:00;19.80;48.90
38237;DHT22;50101;49.438;11.098;2023-03-01T16:34:28;19.80;48.80
38237;DHT22;50101;49.438;11.098;2023-03-01T16:36:54;19.70;48.70
38237;DHT22;50101;49.438;11.098;2023-03-01T16:39:21;19.70;48.70
38237;DHT22;50101;49.438;11.098;2023-03-01T16:41:47;19.70;48.70
38237;DHT22;50101;49.438;11.098;2023-03-01T16:44:14;19.20;42.40
38237;DHT22;50101;49.438;11.098;2023-03-01T16:46:42;17.50;39.00
38237;DHT22;50101;49.438;11.098;2023-03-01T16:49:09;17.50;41.80
38237;DHT22;50101;49.438;11.098;2023-03-01T16:51:36;18.00;44.90
38237;DHT22;50101;49.438;11.098;2023-03-01T16:54:03;18.50;45.40
38237;DHT22;50101;49.438;11.098;2023-03-01T16:56:30;19.00;45.70
38237;DHT22;50101;49.438;11.098;2023-03-01T16:58:59;19.20;45.70
38237;DHT22;50101;49.438;11.098;2023-03-01T17:01:31;19.30;45.50
38237;DHT22;50101;49.438;11.098;2023-03-01T17:04:04;19.50;45.70
38237;DHT22;50101;49.438;11.098;2023-03-01T17:06:30;19.50;45.90
38237;DHT22;50101;49.438;11.098;2023-03-01T17:08:59;19.50;46.00
38237;DHT22;50101;49.438;11.098;2023-03-01T17:11:26;19.60;46.30
38237;DHT22;50101;49.438;11.098;2023-03-01T17:13:52;19.50;46.30
38237;DHT22;50101;49.438;11.098;2023-03-01T17:16:20;19.60;46.60